Aérodrome :
LOGIN :

S'inscrire | Disclaimer

   EN    FR    IT 

 










Légende :    VFR   VFR Marginal   IFR   IFR Intensif   IFR Très Intensif
Visi : 
Plafond : 
>= 8 km
>= 3000ft
5 à 8 km
1000 à 3000 ft
1500m à 5 km
500 à 1000 ft
800 à 1500m
200 à 500 ft
< 800m
< 200 ft
Symboles :   Orages  Brouillard  Fortes neiges  Fortes précipitations  Vent > 20 kt
SIGMETs :   Divers  Orages  Givrage  Turbulence  Onde Orograph.  Cendres Volcan.






- Altitude de l'aérodrome : 1 ft


EGCK - Caernarfon

DERNIER METAR :
  • 100950Z AUTO 26004KT 210V290 9999 NCD 20/09 Q1022

METARs EXPIRÉS :
  • 100920Z AUTO 26004KT 220V310 9999 NCD 18/09 Q1022
  • 100850Z AUTO 29004KT 9999 NCD 16/09 Q1022
  • 100820Z AUTO VRB01KT 9999 NCD 15/11 Q1022
  • 100750Z AUTO VRB02KT 9999 NCD 14/10 Q1022
  • 100720Z AUTO VRB02KT 9999 NCD 13/08 Q1022

TAF TAF EGCK
Valide du 10 à 09h jusqu'au 10 à 18h UTC


100759Z 1009/1018 VRB04KT CAVOK



MET'MAP, la Météo Aéronautique d'un coup d'oeil ! - Copyright ORBIFLY Décembre 2007 - Disclaimer

ORBIFLY MET'MAP TEAM :

Programmation & Développement : Alexandra Zaïnal
Sur une idée originale de : Baudouin d'Aumeries
Assistance à la programmation : Marc-Olivier Méhu
Soutien technique & logistique : Manuel Goepfert

Contact : metmap@orbifly.com




SOURCES & CREDITS :

   NOAA